Mc Guffey, Ohio
Current Conditions -  °F | °C
As of 6:53 AM on Monday 24 Nov 2014 (Local Time) from KAOH Reporting Station
Overcast Overcast  
Wind Chill: 59°   Ceiling: 2500
Heat Index: 59°   Visibility: 10mi
Dew Point: 54°   Wind: 16mph
Humidity: 83%   Direction: 190°S
Pressure: 29.22"   Gusts: NA
Location:  40.6943°N, 83.7835°W
Report Text: KAOH 241153Z AUTO 19014KT 10SM SCT021 BKN025 OVC047 15/12 A2922 RMK AO2 SLP891 60006 70038 T01500122 10150 20139 58001
Loading
Personal Weather Stations






























Interactive Weather Map New forecast layout! Learn more

10-Day Weather Forecast

Advertisements
Track Severe Weather on mobile